createdAt,value
2023-01-15T00:00:11.743Z,8.63
2023-01-15T00:02:38.724Z,8.80
2023-01-15T00:05:04.999Z,8.43
2023-01-15T00:07:31.437Z,8.98
2023-01-15T00:09:58.453Z,8.32
2023-01-15T00:12:24.795Z,8.07
2023-01-15T00:14:51.093Z,8.27
2023-01-15T00:17:17.339Z,8.13
2023-01-15T00:19:43.798Z,8.13
2023-01-15T00:22:10.116Z,7.65
2023-01-15T00:24:36.571Z,7.45
2023-01-15T00:27:02.924Z,7.63
2023-01-15T00:29:29.334Z,7.85
2023-01-15T00:31:55.726Z,7.45
2023-01-15T00:34:22.005Z,7.30
2023-01-15T00:36:48.316Z,6.88
2023-01-15T00:39:14.645Z,7.20
2023-01-15T00:41:41.019Z,7.10
2023-01-15T00:44:07.579Z,6.88
2023-01-15T00:46:34.046Z,6.97
2023-01-15T00:49:00.633Z,6.95
2023-01-15T00:51:27.143Z,5.88
2023-01-15T00:53:53.458Z,6.47
2023-01-15T00:56:19.944Z,6.00
2023-01-15T00:58:46.408Z,6.00
2023-01-15T01:01:12.830Z,5.22
2023-01-15T01:03:39.480Z,5.82
2023-01-15T01:06:05.821Z,5.90
2023-01-15T01:08:32.457Z,5.60
2023-01-15T01:10:58.874Z,5.40
2023-01-15T01:13:25.332Z,5.72
2023-01-15T01:15:51.723Z,5.63
2023-01-15T01:18:18.288Z,5.50
2023-01-15T01:20:44.650Z,5.43
2023-01-15T01:23:10.958Z,5.10
2023-01-15T01:25:37.313Z,5.82
2023-01-15T01:28:03.691Z,5.03
2023-01-15T01:30:30.119Z,5.30
2023-01-15T01:32:56.737Z,4.80
2023-01-15T01:35:23.177Z,5.22
2023-01-15T01:37:49.802Z,4.65
2023-01-15T01:40:16.439Z,4.75
2023-01-15T01:42:42.733Z,4.50
2023-01-15T01:45:09.110Z,4.35
2023-01-15T01:47:35.485Z,5.13
2023-01-15T01:50:02.111Z,4.80
2023-01-15T01:52:28.732Z,4.65
2023-01-15T01:54:54.983Z,4.88
2023-01-15T01:57:21.356Z,4.18
2023-01-15T01:59:47.801Z,4.35
2023-01-15T02:02:14.201Z,4.20
2023-01-15T02:04:40.619Z,4.75
2023-01-15T02:07:08.261Z,4.38
2023-01-15T02:09:35.715Z,4.30
2023-01-15T02:12:03.053Z,4.32
2023-01-15T02:14:30.316Z,4.10
2023-01-15T02:16:57.699Z,4.75
2023-01-15T02:19:24.108Z,4.22
2023-01-15T02:21:50.529Z,4.05
2023-01-15T02:24:17.272Z,4.00
2023-01-15T02:26:43.841Z,4.07
2023-01-15T02:29:10.525Z,4.28
2023-01-15T02:31:36.922Z,4.03
2023-01-15T02:34:03.592Z,3.97
2023-01-15T02:36:30.236Z,4.22
2023-01-15T02:38:57.015Z,4.10
2023-01-15T02:41:23.553Z,4.03
2023-01-15T02:43:49.823Z,3.88
2023-01-15T02:46:16.114Z,4.20
2023-01-15T02:48:42.883Z,3.72
2023-01-15T02:51:09.156Z,3.40
2023-01-15T02:53:35.788Z,3.60
2023-01-15T02:56:02.563Z,3.40
2023-01-15T02:58:28.871Z,3.60
2023-01-15T03:00:55.502Z,3.30
2023-01-15T03:03:22.089Z,3.72
2023-01-15T03:05:48.809Z,3.88
2023-01-15T03:08:15.130Z,3.30
2023-01-15T03:10:41.660Z,3.47
2023-01-15T03:13:08.330Z,3.40
2023-01-15T03:15:35.056Z,3.25
2023-01-15T03:18:01.414Z,3.30
2023-01-15T03:20:27.759Z,3.25
2023-01-15T03:22:54.351Z,3.40
2023-01-15T03:25:20.896Z,3.33
2023-01-15T03:27:47.879Z,3.25
2023-01-15T03:30:14.310Z,3.00
2023-01-15T03:32:41.546Z,2.95
2023-01-15T03:35:08.043Z,2.88
2023-01-15T03:37:34.932Z,2.83
2023-01-15T03:40:01.651Z,2.97
2023-01-15T03:42:27.989Z,3.08
2023-01-15T03:44:54.301Z,2.60
2023-01-15T03:47:20.629Z,2.97
2023-01-15T03:49:47.177Z,2.65
2023-01-15T03:52:13.506Z,2.88
2023-01-15T03:54:40.097Z,2.50
2023-01-15T03:57:06.442Z,2.50
2023-01-15T03:59:33.115Z,3.10
2023-01-15T04:01:59.541Z,2.92
2023-01-15T04:04:27.513Z,2.67
2023-01-15T04:06:55.534Z,2.67
2023-01-15T04:09:22.475Z,2.80
2023-01-15T04:11:50.245Z,2.65
2023-01-15T04:14:17.653Z,2.45
2023-01-15T04:16:45.363Z,2.90
2023-01-15T04:19:12.325Z,2.63
2023-01-15T04:21:39.124Z,2.40
2023-01-15T04:24:05.934Z,2.50
2023-01-15T04:26:33.009Z,2.50
2023-01-15T04:28:59.353Z,2.53
2023-01-15T04:31:25.772Z,2.40
2023-01-15T04:33:52.256Z,2.83
2023-01-15T04:36:18.513Z,2.40
2023-01-15T04:38:45.270Z,2.65
2023-01-15T04:41:11.581Z,2.30
2023-01-15T04:43:38.265Z,2.45
2023-01-15T04:46:04.616Z,2.28
2023-01-15T04:48:30.943Z,2.20
2023-01-15T04:50:57.328Z,2.17
2023-01-15T04:53:23.955Z,2.25
2023-01-15T04:55:50.273Z,2.28
2023-01-15T04:58:17.254Z,1.95
2023-01-15T05:00:43.678Z,2.20
2023-01-15T05:03:09.942Z,2.20
2023-01-15T05:05:36.863Z,2.22
2023-01-15T05:08:03.584Z,2.22
2023-01-15T05:10:29.949Z,2.20
2023-01-15T05:12:56.603Z,2.30
2023-01-15T05:15:23.034Z,2.17
2023-01-15T05:17:49.516Z,2.42
2023-01-15T05:20:16.282Z,2.00
2023-01-15T05:22:42.887Z,2.30
2023-01-15T05:25:09.464Z,2.03
2023-01-15T05:27:36.207Z,2.38
2023-01-15T05:30:02.740Z,2.20
2023-01-15T05:32:29.606Z,2.10
2023-01-15T05:34:56.402Z,2.40
2023-01-15T05:37:22.772Z,2.40
2023-01-15T05:39:49.046Z,2.10
2023-01-15T05:42:15.381Z,1.92
2023-01-15T05:44:41.749Z,2.17
2023-01-15T05:47:08.158Z,2.15
2023-01-15T05:49:34.783Z,1.85
2023-01-15T05:52:01.876Z,2.20
2023-01-15T05:54:28.497Z,1.90
2023-01-15T05:56:54.971Z,2.00
2023-01-15T05:59:21.541Z,2.03
2023-01-15T06:01:48.287Z,1.70
2023-01-15T06:04:15.011Z,2.15
2023-01-15T06:06:41.829Z,1.75
2023-01-15T06:09:08.337Z,2.00
2023-01-15T06:11:35.110Z,2.03
2023-01-15T06:14:01.478Z,1.98
2023-01-15T06:16:27.812Z,2.00
2023-01-15T06:18:54.161Z,1.88
2023-01-15T06:21:20.828Z,1.80
2023-01-15T06:23:47.305Z,2.00
2023-01-15T06:26:13.808Z,1.67
2023-01-15T06:28:40.155Z,1.90
2023-01-15T06:31:06.574Z,1.60
2023-01-15T06:33:33.445Z,1.60
2023-01-15T06:35:59.991Z,1.70
2023-01-15T06:38:26.682Z,1.52
2023-01-15T06:40:52.957Z,1.67
2023-01-15T06:43:19.727Z,2.05
2023-01-15T06:45:46.166Z,1.50
2023-01-15T06:48:13.178Z,1.80
2023-01-15T06:50:39.523Z,1.52
2023-01-15T06:53:06.031Z,1.80
2023-01-15T06:55:32.350Z,2.08
2023-01-15T06:57:59.112Z,1.70
2023-01-15T07:00:25.995Z,1.60
2023-01-15T07:02:52.524Z,1.60
2023-01-15T07:05:18.891Z,1.45
2023-01-15T07:07:45.606Z,1.60
2023-01-15T07:10:12.404Z,1.70
2023-01-15T07:12:38.789Z,1.67
2023-01-15T07:15:05.367Z,1.60
2023-01-15T07:17:31.923Z,1.40
2023-01-15T07:19:58.516Z,1.48
2023-01-15T07:22:24.868Z,1.58
2023-01-15T07:24:51.189Z,1.50
2023-01-15T07:27:17.975Z,1.60
2023-01-15T07:29:44.326Z,1.58
2023-01-15T07:32:10.633Z,1.67
2023-01-15T07:34:37.217Z,1.55
2023-01-15T07:37:03.583Z,1.50
2023-01-15T07:39:29.842Z,1.60
2023-01-15T07:41:56.226Z,1.48
2023-01-15T07:44:22.520Z,1.50
2023-01-15T07:46:48.842Z,1.27
2023-01-15T07:49:15.242Z,1.20
2023-01-15T07:51:41.628Z,1.50
2023-01-15T07:54:08.312Z,1.50
2023-01-15T07:56:34.669Z,1.45
2023-01-15T07:59:01.625Z,1.33
2023-01-15T08:01:28.631Z,1.38
2023-01-15T08:03:55.615Z,1.38
2023-01-15T08:06:22.918Z,1.70
2023-01-15T08:08:49.689Z,1.45
2023-01-15T08:11:16.530Z,1.20
2023-01-15T08:13:42.784Z,1.48
2023-01-15T08:16:09.875Z,1.10
2023-01-15T08:18:36.306Z,1.38
2023-01-15T08:21:02.656Z,1.42
2023-01-15T08:23:29.020Z,1.50
2023-01-15T08:25:55.317Z,1.30
2023-01-15T08:28:22.461Z,1.33
2023-01-15T08:30:49.015Z,1.27
2023-01-15T08:33:15.637Z,1.10
2023-01-15T08:35:42.205Z,1.40
2023-01-15T08:38:08.759Z,1.30
2023-01-15T08:40:35.021Z,1.48
2023-01-15T08:43:01.423Z,1.20
2023-01-15T08:45:27.801Z,1.70
2023-01-15T08:47:54.119Z,1.38
2023-01-15T08:50:20.994Z,1.17
2023-01-15T08:52:47.414Z,1.40
2023-01-15T08:55:14.184Z,1.40
2023-01-15T08:57:40.528Z,1.00
2023-01-15T09:00:07.022Z,1.23
2023-01-15T09:02:33.723Z,1.00
2023-01-15T09:05:00.438Z,1.25
2023-01-15T09:07:27.262Z,1.50
2023-01-15T09:09:53.604Z,1.33
2023-01-15T09:12:20.074Z,1.40
2023-01-15T09:14:58.773Z,1.17
2023-01-15T09:17:29.319Z,1.20
2023-01-15T09:19:56.058Z,1.38
2023-01-15T09:22:22.778Z,1.30
2023-01-15T09:24:50.313Z,1.10
2023-01-15T09:27:17.330Z,1.40
2023-01-15T09:29:43.639Z,1.15
2023-01-15T09:32:10.559Z,1.20
2023-01-15T09:34:37.357Z,1.20
2023-01-15T09:37:03.656Z,1.05
2023-01-15T09:39:30.538Z,1.20
2023-01-15T09:41:57.903Z,1.10
2023-01-15T09:44:24.642Z,1.30
2023-01-15T09:46:51.509Z,1.27
2023-01-15T09:49:17.875Z,1.20
2023-01-15T09:51:44.234Z,1.08
2023-01-15T09:54:10.592Z,1.30
2023-01-15T09:56:37.501Z,1.08
2023-01-15T09:59:04.462Z,1.30
2023-01-15T10:01:30.885Z,1.30
2023-01-15T10:03:57.401Z,0.93
2023-01-15T10:06:24.137Z,1.20
2023-01-15T10:08:50.918Z,1.08
2023-01-15T10:11:17.766Z,1.10
2023-01-15T10:13:44.453Z,1.25
2023-01-15T10:16:10.815Z,1.02
2023-01-15T10:18:37.337Z,1.20
2023-01-15T10:21:03.999Z,1.10
2023-01-15T10:23:30.272Z,1.10
2023-01-15T10:25:56.631Z,1.08
2023-01-15T10:28:23.221Z,1.13
2023-01-15T10:30:50.097Z,1.02
2023-01-15T10:33:16.678Z,1.20
2023-01-15T10:35:42.993Z,1.10
2023-01-15T10:40:48.183Z,0.88
2023-01-15T10:43:14.692Z,1.23
2023-01-15T10:45:41.266Z,1.27
2023-01-15T10:48:07.680Z,1.05
2023-01-15T10:50:34.438Z,1.20
2023-01-15T10:53:00.719Z,1.20
2023-01-15T10:55:27.532Z,1.20
2023-01-15T10:58:08.953Z,1.00
2023-01-15T11:00:36.189Z,1.30
2023-01-15T11:03:03.155Z,0.98
2023-01-15T11:05:29.515Z,0.98
2023-01-15T11:08:34.409Z,1.08
2023-01-15T11:10:42.492Z,1.30
2023-01-15T11:13:09.225Z,0.98
2023-01-15T11:15:35.625Z,1.02
2023-01-15T11:18:01.994Z,1.17
2023-01-15T11:20:28.682Z,1.13
2023-01-15T11:22:55.096Z,0.82
2023-01-15T11:25:21.686Z,1.20
2023-01-15T11:27:48.018Z,1.05
2023-01-15T11:30:14.386Z,0.70
2023-01-15T11:32:40.896Z,0.90
2023-01-15T11:35:07.206Z,0.93
2023-01-15T11:37:33.954Z,1.30
2023-01-15T11:40:00.707Z,1.30
2023-01-15T11:42:27.715Z,1.00
2023-01-15T11:44:54.418Z,0.60
2023-01-15T11:47:20.977Z,0.93
2023-01-15T11:49:47.636Z,0.80
2023-01-15T11:52:14.046Z,1.00
2023-01-15T11:54:40.433Z,0.90
2023-01-15T11:57:07.379Z,1.30
2023-01-15T11:59:35.636Z,1.00
2023-01-15T12:02:02.896Z,0.90
2023-01-15T12:04:29.347Z,1.00
2023-01-15T12:06:56.203Z,1.05
2023-01-15T12:09:23.177Z,1.08
2023-01-15T12:11:49.456Z,1.00
2023-01-15T12:14:15.836Z,1.10
2023-01-15T12:16:42.164Z,0.93
2023-01-15T12:19:08.453Z,1.30
2023-01-15T12:21:34.925Z,1.00
2023-01-15T12:24:01.328Z,1.00
2023-01-15T12:26:27.820Z,0.95
2023-01-15T12:28:54.193Z,1.10
2023-01-15T12:31:20.990Z,1.00
2023-01-15T12:33:47.547Z,1.02
2023-01-15T12:36:13.869Z,0.90
2023-01-15T12:38:40.196Z,0.90
2023-01-15T12:41:06.550Z,0.85
2023-01-15T12:43:33.463Z,0.93
2023-01-15T12:45:59.854Z,0.80
2023-01-15T12:48:26.392Z,0.80
2023-01-15T12:50:53.014Z,0.93
2023-01-15T12:53:19.324Z,0.75
2023-01-15T12:55:45.703Z,0.85
2023-01-15T12:58:12.086Z,1.10
2023-01-15T13:00:38.414Z,0.90
2023-01-15T13:03:05.347Z,1.02
2023-01-15T13:05:31.642Z,0.73
2023-01-15T13:07:58.104Z,0.60
2023-01-15T13:10:24.524Z,0.80
2023-01-15T13:12:50.766Z,0.77
2023-01-15T13:15:17.194Z,1.00
2023-01-15T13:17:43.527Z,0.90
2023-01-15T13:20:10.393Z,0.77
2023-01-15T13:22:37.234Z,0.95
2023-01-15T13:25:03.891Z,0.90
2023-01-15T13:27:30.210Z,0.68
2023-01-15T13:29:57.638Z,1.00
2023-01-15T13:32:24.037Z,0.90
2023-01-15T13:34:50.896Z,0.65
2023-01-15T13:37:17.312Z,0.80
2023-01-15T13:39:43.675Z,0.75
2023-01-15T13:42:10.054Z,0.88
2023-01-15T13:44:36.856Z,0.98
2023-01-15T13:47:03.241Z,1.10
2023-01-15T13:49:29.798Z,0.88
2023-01-15T13:51:56.151Z,0.60
2023-01-15T13:54:22.506Z,0.90
2023-01-15T13:56:49.257Z,0.90
2023-01-15T13:59:15.641Z,0.80
2023-01-15T14:01:42.671Z,1.02
2023-01-15T14:04:09.671Z,0.90
2023-01-15T14:06:36.118Z,0.88
2023-01-15T14:09:03.026Z,1.00
2023-01-15T14:11:29.516Z,0.98
2023-01-15T14:13:56.274Z,0.80
2023-01-15T14:16:22.898Z,0.60
2023-01-15T14:18:50.277Z,0.65
2023-01-15T14:21:17.323Z,1.00
2023-01-15T14:23:43.982Z,1.30
2023-01-15T14:26:10.374Z,0.70
2023-01-15T14:28:37.178Z,1.20
2023-01-15T14:31:03.448Z,0.90
2023-01-15T14:33:30.168Z,0.90
2023-01-15T14:35:56.950Z,0.85
2023-01-15T14:38:23.683Z,0.90
2023-01-15T14:40:50.033Z,0.95
2023-01-15T14:43:16.287Z,0.70
2023-01-15T14:45:42.911Z,0.90
2023-01-15T14:48:09.726Z,0.60
2023-01-15T14:50:36.482Z,1.00
2023-01-15T14:53:03.165Z,0.95
2023-01-15T14:55:29.887Z,0.90
2023-01-15T14:57:56.251Z,0.88
2023-01-15T15:00:22.901Z,0.90
2023-01-15T15:02:49.668Z,0.80
2023-01-15T15:05:16.044Z,0.80
2023-01-15T15:07:42.617Z,0.90
2023-01-15T15:10:08.998Z,0.82
2023-01-15T15:12:35.719Z,0.75
2023-01-15T15:15:02.158Z,0.80
2023-01-15T15:17:28.682Z,0.93
2023-01-15T15:19:55.256Z,0.80
2023-01-15T15:22:22.110Z,1.08
2023-01-15T15:24:48.506Z,0.93
2023-01-15T15:27:15.182Z,1.13
2023-01-15T15:29:41.578Z,0.90
2023-01-15T15:32:08.153Z,0.80
2023-01-15T15:34:34.841Z,0.75
2023-01-15T15:37:01.626Z,0.90
2023-01-15T15:39:28.406Z,0.70
2023-01-15T15:41:54.880Z,0.98
2023-01-15T15:44:21.853Z,9.90
2023-01-15T15:46:48.972Z,175.23
2023-01-15T15:49:15.573Z,111.15
2023-01-15T15:51:41.916Z,105.63
2023-01-15T15:54:08.186Z,95.80
2023-01-15T15:56:34.902Z,88.22
2023-01-15T15:59:01.208Z,78.95
2023-01-15T16:01:27.864Z,74.63
2023-01-15T16:03:54.299Z,68.38
2023-01-15T16:06:20.815Z,60.83
2023-01-15T16:08:47.167Z,58.28
2023-01-15T16:11:13.929Z,54.28
2023-01-15T16:13:40.398Z,146.88
2023-01-15T16:16:07.015Z,149.48
2023-01-15T16:18:33.390Z,134.65
2023-01-15T16:20:59.761Z,125.65
2023-01-15T16:23:26.289Z,115.68
2023-01-15T16:25:53.073Z,114.35
2023-01-15T16:28:19.354Z,104.30
2023-01-15T16:30:45.693Z,95.40
2023-01-15T16:33:12.069Z,93.13
2023-01-15T16:35:38.972Z,86.47
2023-01-15T16:38:05.743Z,82.45
2023-01-15T16:40:32.042Z,77.78
2023-01-15T16:42:58.707Z,73.20
2023-01-15T16:45:25.060Z,70.03
2023-01-15T16:47:52.697Z,66.88
2023-01-15T16:50:19.012Z,62.50
2023-01-15T16:52:45.357Z,71.28
2023-01-15T16:55:12.117Z,134.55
2023-01-15T16:57:38.873Z,182.50
2023-01-15T17:00:05.232Z,152.35
2023-01-15T17:02:31.873Z,135.75
2023-01-15T17:04:58.688Z,129.73
2023-01-15T17:07:25.498Z,122.13
2023-01-15T17:09:51.728Z,115.38
2023-01-15T17:12:18.698Z,107.85
2023-01-15T17:14:45.288Z,101.25
2023-01-15T17:17:11.687Z,93.75
2023-01-15T17:19:38.416Z,86.78
2023-01-15T17:22:04.719Z,81.75
2023-01-15T17:24:31.727Z,77.60
2023-01-15T17:26:58.112Z,129.73
2023-01-15T17:29:24.437Z,190.80
2023-01-15T17:31:50.715Z,180.50
2023-01-15T17:34:17.443Z,164.18
2023-01-15T17:36:44.035Z,153.07
2023-01-15T17:39:11.387Z,140.27
2023-01-15T17:41:38.267Z,134.32
2023-01-15T17:44:04.551Z,123.78
2023-01-15T17:46:31.495Z,122.93
2023-01-15T17:48:57.894Z,110.00
2023-01-15T17:51:24.659Z,105.03
2023-01-15T17:53:51.319Z,99.55
2023-01-15T17:56:17.926Z,95.88
2023-01-15T17:58:44.246Z,134.73
2023-01-15T18:01:11.224Z,222.48
2023-01-15T18:03:37.871Z,219.43
2023-01-15T18:06:04.241Z,197.63
2023-01-15T18:08:30.620Z,182.13
2023-01-15T18:10:56.930Z,174.50
2023-01-15T18:13:23.215Z,154.73
2023-01-15T18:15:50.061Z,147.57
2023-01-15T18:18:16.717Z,136.27
2023-01-15T18:20:43.606Z,132.18
2023-01-15T18:23:10.893Z,254.23
2023-01-15T18:25:37.663Z,245.38
2023-01-15T18:28:04.270Z,207.57
2023-01-15T18:30:30.871Z,195.90
2023-01-15T18:33:02.917Z,152.68
2023-01-15T18:35:35.724Z,146.07
2023-01-15T18:40:31.799Z,128.57
2023-01-15T18:43:02.325Z,118.32
2023-01-15T18:45:32.940Z,110.50
2023-01-15T18:48:06.134Z,105.47
2023-01-15T18:50:32.869Z,101.10
2023-01-15T19:03:41.307Z,220.73
2023-01-15T19:08:43.524Z,203.93
2023-01-15T19:11:10.137Z,196.80
2023-01-15T19:13:36.793Z,199.25
2023-01-15T19:16:03.111Z,398.63
2023-01-15T19:18:29.466Z,473.00
2023-01-15T19:20:55.982Z,399.65
2023-01-15T19:23:22.265Z,358.58
2023-01-15T19:25:49.205Z,326.25
2023-01-15T19:28:16.602Z,298.88
2023-01-15T19:30:43.010Z,288.35
2023-01-15T19:33:09.388Z,277.10
2023-01-15T19:35:35.836Z,451.75
2023-01-15T19:38:02.370Z,556.40
2023-01-15T19:40:29.269Z,584.78
2023-01-15T19:42:55.532Z,512.83
2023-01-15T19:45:22.418Z,462.42
2023-01-15T19:47:49.276Z,424.27
2023-01-15T19:50:15.603Z,397.00
2023-01-15T19:52:41.885Z,392.40
2023-01-15T19:55:08.507Z,369.75
2023-01-15T19:57:34.793Z,355.02
2023-01-15T20:00:01.221Z,339.00
2023-01-15T20:02:27.624Z,339.17
2023-01-15T20:04:53.978Z,331.13
2023-01-15T20:07:20.262Z,325.13
2023-01-15T20:09:47.680Z,311.60
2023-01-15T20:12:14.526Z,301.75
2023-01-15T20:14:41.171Z,299.45
2023-01-15T20:17:07.763Z,283.80
2023-01-15T20:19:34.040Z,274.83
2023-01-15T20:22:00.640Z,277.38
2023-01-15T20:24:27.039Z,261.23
2023-01-15T20:26:53.336Z,256.55
2023-01-15T20:29:19.729Z,247.07
2023-01-15T20:31:46.448Z,240.82
2023-01-15T20:34:12.873Z,238.45
2023-01-15T20:36:39.126Z,242.70
2023-01-15T20:39:05.509Z,225.40
2023-01-15T20:41:32.434Z,226.98
2023-01-15T20:43:59.084Z,217.63
2023-01-15T20:46:25.848Z,215.32
2023-01-15T20:48:52.188Z,212.55
2023-01-15T20:51:18.752Z,206.40
2023-01-15T20:53:45.007Z,203.40
2023-01-15T20:56:11.538Z,196.75
2023-01-15T20:58:37.902Z,194.07
2023-01-15T21:01:04.795Z,187.63
2023-01-15T21:03:31.375Z,178.52
2023-01-15T21:05:57.777Z,177.57
2023-01-15T21:08:24.509Z,175.57
2023-01-15T21:10:50.840Z,168.75
2023-01-15T21:13:17.109Z,166.18
2023-01-15T21:15:44.166Z,159.98
2023-01-15T21:18:10.983Z,153.30
2023-01-15T21:20:38.282Z,150.75
2023-01-15T21:23:04.719Z,149.57
2023-01-15T21:25:31.129Z,148.45
2023-01-15T21:27:57.663Z,142.05
2023-01-15T21:30:24.016Z,139.93
2023-01-15T21:32:50.713Z,131.18
2023-01-15T21:35:17.376Z,131.60
2023-01-15T21:37:43.672Z,129.75
2023-01-15T21:40:09.960Z,129.25
2023-01-15T21:42:36.627Z,125.63
2023-01-15T21:45:02.868Z,125.32
2023-01-15T21:47:29.199Z,116.20
2023-01-15T21:49:55.795Z,115.15
2023-01-15T21:52:22.200Z,116.63
2023-01-15T21:54:49.161Z,107.30
2023-01-15T21:57:15.649Z,106.68
2023-01-15T21:59:41.953Z,106.93
2023-01-15T22:02:08.895Z,102.32
2023-01-15T22:04:35.359Z,101.85
2023-01-15T22:07:01.700Z,97.50
2023-01-15T22:09:28.017Z,95.00
2023-01-15T22:11:54.315Z,97.38
2023-01-15T22:14:23.481Z,94.55
2023-01-15T22:16:49.914Z,91.07
2023-01-15T22:19:16.343Z,89.75
2023-01-15T22:21:42.683Z,88.28
2023-01-15T22:24:09.057Z,86.57
2023-01-15T22:26:35.318Z,82.13
2023-01-15T22:29:01.898Z,83.35
2023-01-15T22:31:28.273Z,79.65
2023-01-15T22:33:54.747Z,78.35
2023-01-15T22:36:21.063Z,76.55
2023-01-15T22:38:47.699Z,74.95
2023-01-15T22:41:14.008Z,72.38
2023-01-15T22:43:40.613Z,73.53
2023-01-15T22:46:07.206Z,69.20
2023-01-15T22:48:33.670Z,67.72
2023-01-15T22:51:00.021Z,67.22
2023-01-15T22:53:26.517Z,65.07
2023-01-15T22:55:52.832Z,66.15
2023-01-15T22:58:19.382Z,63.65
2023-01-15T23:00:46.129Z,59.33
2023-01-15T23:03:12.695Z,59.38
2023-01-15T23:05:40.627Z,58.45
2023-01-15T23:08:07.471Z,56.03
2023-01-15T23:10:33.797Z,54.83
2023-01-15T23:13:00.096Z,54.95
2023-01-15T23:15:26.919Z,53.97
2023-01-15T23:17:53.693Z,49.13
2023-01-15T23:20:20.143Z,52.45
2023-01-15T23:22:46.585Z,47.50
2023-01-15T23:25:13.131Z,49.35
2023-01-15T23:27:40.197Z,47.03
2023-01-15T23:30:06.832Z,42.47
2023-01-15T23:32:33.264Z,45.80
2023-01-15T23:34:59.606Z,45.35
2023-01-15T23:37:25.974Z,44.95
2023-01-15T23:39:52.389Z,42.53
2023-01-15T23:42:19.214Z,40.97
2023-01-15T23:44:45.938Z,41.45
2023-01-15T23:47:12.403Z,38.25
2023-01-15T23:49:38.815Z,38.50
2023-01-15T23:52:05.107Z,38.08
2023-01-15T23:54:31.913Z,36.20
2023-01-15T23:56:58.290Z,35.45
2023-01-15T23:59:24.837Z,39.08
